Main page
METAR-TAF:

METAR-TAF

Airports :

Manhattan Regional Airport

Manhattan, Kansas, United States

latitude: 39-08-07N, longitude: 096-40-40W, elevation: 1053 ft

Current weather observation

The report was made 1 hour and 32 minutes ago, at 23:52 UTC
Wind 7 mph from the Northwest
Temperature 41°F
Humidity 65%
Pressure 30.08 in. Hg
Visibility: 10 miles
Overcast at a height of 3400 ft

METAR: KMHK 262352Z 31006KT 10SM OVC034 05/M01 A3008 RMK AO2 SLP192 T00501011 10056 20033 53003 $

Time: 20:24 (01:24 UTC)

Forecast

The report was made 1 hour and 45 minutes ago, at 23:39 UTC
Forecast valid from 27 at 00 UTC to 27 at 24 UTC
Wind 6 mph from the North/Northwest
Visibility: 6 miles
Broken clouds at a height of 3500 ft
From 27 at 0500 UTC
Wind 6 mph from the North
Visibility: 6 miles
Scattered clouds at a height of 20000 ft

TAF: KMHK 262339Z 2700/2724 34005KT P6SM BKN035 FM270500 01005KT P6SM SCT200

Weather observations and forecasts of more than 4000 airports (METAR and TAF reports).

The available stations are represented by yellow and red dots on the map.

Hover mouse over dot to see the name of the station.

Then click to see weather observations and forecasts.

To change the map : click on the green buttons with a black cross to zoom in, on the green button with a dash to zoom out, or on the green arrows for adjacent maps.


METAR-TAF: